Chilcoot, California
Current Conditions -  °F | °C
As of 4:15 PM on Friday 24 Oct 2014 (Local Time) from KRTS Reporting Station
Clear Clear  
Wind Chill: 73°   Ceiling: Unl
Heat Index: 73°   Visibility: 10mi
Dew Point: 18°   Wind: 14mph
Humidity: 12%   Direction: 230°SW
Pressure: 29.99"   Gusts: 29mph
Location:  39.8°N, 120.14°W
Report Text: KRTS 242315Z AUTO 23012G25KT 10SM CLR 23/M08 A2999 RMK AO2
Loading
Personal Weather Stations






























Interactive Weather Map
Tropical Storm Tracking
New forecast layout! Learn more

10-Day Weather Forecast

Advertisements
Track Severe Weather on mobile